Time;durP1;ratioP1;P1;durP2;ratioP2;P2;SDS_P1;SDS_P2;PMS_P1;PMS_P2;Temp;Humidity;BMP_temperature;BMP_pressure;BME280_temperature;BME280_humidity;BME280_pressure;Samples;Min_cycle;Max_cycle;Signal;HPM_P1;HPM_P2
2021/12/09 00:00:43;;;;;;;23.27;11.35;;;;;;;;;;4995300;28;20518;-68
2021/12/09 00:03:10;;;;;;;24.58;12.30;;;;;;;;;;4980277;28;20066;-68
2021/12/09 00:05:37;;;;;;;28.25;13.10;;;;;;;;;;4995499;28;20137;-68
2021/12/09 00:08:04;;;;;;;22.52;11.27;;;;;;;;;;4996422;28;20089;-68
2021/12/09 00:10:30;;;;;;;24.38;12.38;;;;;;;;;;4996399;28;20050;-68
2021/12/09 00:12:56;;;;;;;27.77;12.18;;;;;;;;;;4995057;28;20055;-68
2021/12/09 00:15:22;;;;;;;25.65;12.27;;;;;;;;;;4995235;28;20483;-67
2021/12/09 00:17:48;;;;;;;26.23;11.82;;;;;;;;;;4995929;28;20050;-68
2021/12/09 00:20:15;;;;;;;24.70;12.02;;;;;;;;;;4996270;28;20058;-68
2021/12/09 00:22:42;;;;;;;25.08;12.65;;;;;;;;;;4996196;28;20054;-68
2021/12/09 00:25:08;;;;;;;23.50;11.85;;;;;;;;;;4996146;28;20042;-68
2021/12/09 00:27:36;;;;;;;24.42;12.52;;;;;;;;;;4996115;28;20074;-68
2021/12/09 00:30:03;;;;;;;27.15;13.57;;;;;;;;;;5027906;28;20065;-68
2021/12/09 00:32:29;;;;;;;36.45;14.57;;;;;;;;;;4994450;28;20058;-68
2021/12/09 00:34:55;;;;;;;25.17;13.13;;;;;;;;;;4996030;28;20054;-67
2021/12/09 00:39:51;;;;;;;35.05;14.25;;;;;;;;;;4995904;28;20130;-68
2021/12/09 00:42:21;;;;;;;27.40;13.25;;;;;;;;;;4995822;28;20157;-68
2021/12/09 00:44:47;;;;;;;22.88;13.27;;;;;;;;;;4995133;28;20399;-68
2021/12/09 00:47:13;;;;;;;33.78;13.75;;;;;;;;;;4978243;28;20129;-68
2021/12/09 00:49:39;;;;;;;29.15;13.95;;;;;;;;;;4994491;28;20585;-69
2021/12/09 00:52:05;;;;;;;25.83;13.55;;;;;;;;;;4995415;28;20483;-67
2021/12/09 00:54:31;;;;;;;32.58;14.55;;;;;;;;;;4995624;28;20066;-67
2021/12/09 00:56:58;;;;;;;31.45;14.48;;;;;;;;;;4978069;28;20497;-67
2021/12/09 00:59:24;;;;;;;;;;;;;;;;;;4994997;28;20082;-68
2021/12/09 01:01:50;;;;;;;29.65;13.15;;;;;;;;;;4994097;28;20018;-69
2021/12/09 01:04:16;;;;;;;27.73;14.65;;;;;;;;;;4995441;28;20081;-68
2021/12/09 01:06:42;;;;;;;29.95;15.27;;;;;;;;;;4995319;28;20046;-68
2021/12/09 01:09:08;;;;;;;32.28;15.52;;;;;;;;;;4978132;28;20054;-68
2021/12/09 01:11:34;;;;;;;31.20;15.02;;;;;;;;;;4995316;28;20054;-67
2021/12/09 01:14:00;;;;;;;27.25;15.07;;;1.40;99.90;;;;;;4995307;28;20502;-68
2021/12/09 01:16:26;;;;;;;30.13;15.77;;;;;;;;;;4994933;28;20053;-67
2021/12/09 01:18:53;;;;;;;29.08;16.20;;;;;;;;;;4977742;28;20042;-67
2021/12/09 01:21:19;;;;;;;35.25;15.60;;;;;;;;;;4995136;28;20042;-67
2021/12/09 01:23:45;;;;;;;31.60;15.00;;;;;;;;;;4993842;28;20062;-69
2021/12/09 01:26:11;;;;;;;29.63;14.60;;;;;;;;;;4995065;28;20156;-68
2021/12/09 01:29:16;;;;;;;31.15;15.43;;;;;;;;;;4995034;28;20073;-68
2021/12/09 01:31:37;;;;;;;26.27;14.82;;;;;;;;;;4994370;28;20062;-70
2021/12/09 01:34:04;;;;;;;29.45;15.40;;;;;;;;;;4994923;28;20069;-67
2021/12/09 01:36:31;;;;;;;29.67;15.20;;;;;;;;;;4993620;28;20502;-69
2021/12/09 01:38:57;;;;;;;37.13;17.05;;;;;;;;;;4994472;28;20486;-68
2021/12/09 01:41:23;;;;;;;30.65;17.73;;;;;;;;;;4994814;28;20081;-67
2021/12/09 01:43:50;;;;;;;32.92;15.55;;;;;;;;;;4994741;28;20459;-68
2021/12/09 01:46:18;;;;;;;32.60;16.45;;;;;;;;;;4993319;28;20050;-68
2021/12/09 01:48:45;;;;;;;39.60;16.67;;;;;;;;;;4994615;28;20054;-67
2021/12/09 01:51:11;;;;;;;38.03;16.48;;;;;;;;;;4993346;28;20058;-68
2021/12/09 01:53:37;;;;;;;;;;;;;;;;;;4993907;28;20050;-68
2021/12/09 01:56:05;;;;;;;33.40;15.98;;;;;;;;;;4993487;28;20286;-68
2021/12/09 01:58:32;;;;;;;36.13;17.00;;;;;;;;;;4992947;28;20050;-68
2021/12/09 02:00:58;;;;;;;37.72;17.45;;;;;;;;;;4976923;28;20050;-67
2021/12/09 02:03:24;;;;;;;36.90;17.48;;;;;;;;;;4993364;28;20046;-67
2021/12/09 02:05:50;;;;;;;34.70;18.27;;;;;;;;;;4994244;28;20050;-69
2021/12/09 02:08:16;;;;;;;34.95;17.50;;;;;;;;;;4994243;28;20050;-67
2021/12/09 02:10:44;;;;;;;36.65;19.02;;;;;;;;;;4993000;28;20049;-67
2021/12/09 02:13:10;;;;;;;39.20;18.88;;;;;;;;;;4994204;28;20054;-68
2021/12/09 02:15:38;;;;;;;33.72;18.75;;;;;;;;;;4993830;28;20133;-68
2021/12/09 02:18:05;;;;;;;39.25;20.50;;;;;;;;;;4993675;28;20392;-67
2021/12/09 02:20:36;;;;;;;38.05;17.75;;;;;;;;;;4994056;28;20545;-68
2021/12/09 02:23:08;;;;;;;38.45;19.25;;;;;;;;;;4993007;28;20050;-67
2021/12/09 02:25:34;;;;;;;44.63;19.27;;;;;;;;;;4993032;28;20133;-68
2021/12/09 02:28:00;;;;;;;40.17;18.83;;;;;;;;;;4992601;28;20510;-68
2021/12/09 02:30:26;;;;;;;44.13;19.83;;;;;;;;;;4992592;28;20052;-67
2021/12/09 02:32:52;;;;;;;43.60;20.83;;;;;;;;;;4993440;28;20124;-68
2021/12/09 02:35:18;;;;;;;41.85;20.38;;;;;;;;;;4976647;28;20050;-67
2021/12/09 02:37:45;;;;;;;38.10;19.48;;;;;;;;;;4993668;28;20085;-67
2021/12/09 02:40:12;;;;;;;43.30;19.98;;;;;;;;;;4993705;28;20053;-68
2021/12/09 02:42:39;;;;;;;44.97;20.25;;;;;;;;;;4992356;28;20100;-68
2021/12/09 02:45:05;;;;;;;;;;;;;;;;;;4994025;28;20125;-67
2021/12/09 02:47:31;;;;;;;36.00;19.02;;;;;;;;;;4992635;28;19926;-67
2021/12/09 02:49:57;;;;;;;39.28;20.17;;;;;;;;;;4992596;28;20054;-67
2021/12/09 02:52:23;;;;;;;44.33;21.95;;;;;;;;;;4992472;28;20112;-68
2021/12/09 02:54:49;;;;;;;41.17;21.52;;;;;;;;;;4976323;28;20061;-68
2021/12/09 02:57:15;;;;;;;42.05;21.02;;;;;;;;;;4993149;28;20467;-67
2021/12/09 02:59:41;;;;;;;47.70;21.42;;;;;;;;;;4993426;28;20050;-68
2021/12/09 03:02:10;;;;;;;45.47;20.95;;;;;;;;;;4992156;28;20085;-67
2021/12/09 03:04:50;;;;;;;43.40;20.92;;;;;;;;;;4993456;28;20149;-68
2021/12/09 03:07:24;;;;;;;38.65;20.20;;;;;;;;;;4993098;28;20093;-68
2021/12/09 03:09:53;;;;;;;41.47;20.35;;;;;;;;;;4993333;28;20089;-67
2021/12/09 03:12:28;;;;;;;43.85;21.85;;;;;;;;;;4993055;28;20050;-67
2021/12/09 03:14:54;;;;;;;43.22;21.13;;;;;;;;;;4992099;28;20256;-67
2021/12/09 03:17:20;;;;;;;37.63;20.35;;;;;;;;;;4991920;28;20050;-67
2021/12/09 03:19:47;;;;;;;;;;;1.00;99.90;;;;;;4993631;28;20054;-68
2021/12/09 03:22:13;;;;;;;46.38;20.63;;;;;;;;;;4991890;28;19929;-68
2021/12/09 03:24:39;;;;;;;;;;;;;;;;;;4992310;28;20049;-68
2021/12/09 03:27:06;;;;;;;45.30;22.00;;;;;;;;;;4991940;28;19922;-67
2021/12/09 03:29:31;;;;;;;;;;;0.70;99.90;;;;;;4993556;28;20058;-68
2021/12/09 03:32:00;;;;;;;48.03;23.73;;;;;;;;;;4993109;28;20345;-68
2021/12/09 03:34:28;;;;;;;44.55;23.08;;;;;;;;;;4991828;28;20066;-69
2021/12/09 03:36:55;;;;;;;53.60;22.98;;;;;;;;;;4991871;28;20398;-68
2021/12/09 03:39:22;;;;;;;54.50;25.27;;;;;;;;;;4992044;28;20059;-68
2021/12/09 03:41:51;;;;;;;52.30;24.20;;;;;;;;;;4991622;28;20396;-67
2021/12/09 03:44:17;;;;;;;46.17;24.33;;;;;;;;;;4991958;28;20046;-68
2021/12/09 03:46:43;;;;;;;47.67;23.50;;;;;;;;;;4992074;28;20046;-67
2021/12/09 03:49:10;;;;;;;50.75;24.40;;;;;;;;;;4992031;28;20116;-68
2021/12/09 03:51:36;;;;;;;;;;;;;;;;;;4993508;28;20046;-67
2021/12/09 03:54:06;;;;;;;47.03;25.15;;;;;;;;;;4993001;28;20020;-68
2021/12/09 03:56:32;;;;;;;54.70;24.52;;;;;;;;;;4991603;28;20050;-68
2021/12/09 03:58:58;;;;;;;50.40;25.67;;;;;;;;;;4991650;28;20487;-68
2021/12/09 04:01:24;;;;;;;50.75;24.35;;;;;;;;;;4991997;28;20268;-68
2021/12/09 04:03:50;;;;;;;46.33;24.20;;;;;;;;;;4991602;28;20101;-68
2021/12/09 04:06:16;;;;;;;49.58;25.48;;;;;;;;;;4992521;28;20463;-68
2021/12/09 04:08:42;;;;;;;58.92;25.17;;;;;;;;;;4992809;28;20057;-68
2021/12/09 04:11:10;;;;;;;48.58;24.27;;;;;;;;;;4992524;28;20042;-67
2021/12/09 04:13:37;;;;;;;43.03;22.65;;;;;;;;;;4992782;28;20402;-68
2021/12/09 04:16:05;;;;;;;45.97;23.98;;;;;;;;;;4991445;28;20134;-68
2021/12/09 04:18:31;;;;;;;50.40;25.33;;;;;;;;;;4992703;28;20046;-68
2021/12/09 04:20:57;;;;;;;51.25;24.23;;;;;;;;;;4995838;28;20046;-67
2021/12/09 04:23:25;;;;;;;56.85;24.65;;;;;;;;;;4978977;28;20046;-67
2021/12/09 04:25:51;;;;;;;54.80;25.98;;;;;;;;;;4995874;28;20057;-67
2021/12/09 04:28:17;;;;;;;56.38;25.50;;;;;;;;;;4996134;28;20136;-68
2021/12/09 04:30:43;;;;;;;56.92;25.80;;;;;;;;;;4996099;28;20046;-68
2021/12/09 04:33:09;;;;;;;44.20;23.73;;;;;;;;;;4995924;28;20058;-68
2021/12/09 04:35:35;;;;;;;50.13;24.63;;;;;;;;;;4995034;28;20093;-68
2021/12/09 04:38:02;;;;;;;52.33;25.92;;;;;;;;;;4995898;28;20046;-67
2021/12/09 04:40:28;;;;;;;58.97;26.17;;;;;;;;;;4994474;28;20058;-68
2021/12/09 04:42:54;;;;;;;56.42;26.52;;;;;;;;;;4995897;28;20085;-69
2021/12/09 04:45:20;;;;;;;61.17;26.25;;;;;;;;;;4994853;28;20078;-67
2021/12/09 04:47:46;;;;;;;49.92;24.67;;;;;;;;;;4994502;28;20089;-67
2021/12/09 04:50:12;;;;;;;48.03;25.33;;;;;;;;;;4995493;28;20491;-69
2021/12/09 04:52:39;;;;;;;59.67;25.45;;;1.10;99.90;;;;;;4995779;28;20054;-68
2021/12/09 04:55:06;;;;;;;53.03;25.08;;;;;;;;;;4994333;28;20050;-68
2021/12/09 04:57:32;;;;;;;56.35;25.02;;;;;;;;;;4994314;28;20491;-69
2021/12/09 04:59:59;;;;;;;46.63;23.85;;;;;;;;;;4995525;28;20085;-68
2021/12/09 05:03:12;;;;;;;58.85;26.60;;;;;;;;;;4994416;28;20356;-68
2021/12/09 05:05:11;;;;;;;57.92;26.00;;;;;;;;;;4990543;28;20057;-68
2021/12/09 05:07:37;;;;;;;;;;;;;;;;;;4994316;28;20051;-71
2021/12/09 05:10:04;;;;;;;48.10;24.33;;;;;;;;;;4995350;28;19928;-67
2021/12/09 05:12:29;;;;;;;;;;;0.80;99.90;;;;;;4994720;28;20055;-68
2021/12/09 05:14:56;;;;;;;50.55;24.67;;;;;;;;;;4994056;28;19922;-68
2021/12/09 05:17:22;;;;;;;56.90;27.08;;;;;;;;;;4995217;28;20042;-67
2021/12/09 05:19:48;;;;;;;55.15;25.05;;;;;;;;;;4995170;28;20046;-68
2021/12/09 05:22:14;;;;;;;47.90;24.42;;;;;;;;;;4994887;28;20053;-67
2021/12/09 05:24:40;;;;;;;55.35;25.25;;;;;;;;;;4995203;28;20053;-67
2021/12/09 05:27:07;;;;;;;44.83;24.48;;;;;;;;;;4995041;28;20482;-68
2021/12/09 05:29:39;;;;;;;51.78;24.90;;;;;;;;;;4977798;28;20050;-68
2021/12/09 05:32:13;;;;;;;53.42;25.33;;;;;;;;;;4993858;28;20394;-67
2021/12/09 05:34:46;;;;;;;49.47;24.48;;;;;;;;;;4993548;28;20051;-68
2021/12/09 05:37:14;;;;;;;47.15;23.95;;;;;;;;;;4993528;28;20382;-67
2021/12/09 05:39:40;;;;;;;58.65;23.65;;;;;;;;;;4994866;28;20096;-68
2021/12/09 05:42:07;;;;;;;56.47;24.60;;;;;;;;;;4993807;28;20108;-67
2021/12/09 05:44:34;;;;;;;48.70;24.45;;;;;;;;;;4993535;28;20133;-68
2021/12/09 05:47:02;;;;;;;55.15;23.58;;;;;;;;;;4993661;28;20491;-68
2021/12/09 05:49:29;;;;;;;49.28;22.88;;;;;;;;;;4994637;28;20061;-68
2021/12/09 05:51:55;;;;;;;;;;;;;;;;;;4994497;28;20109;-67
2021/12/09 05:54:21;;;;;;;49.53;23.80;;;;;;;;;;4994517;28;19921;-68
2021/12/09 05:56:47;;;;;;;62.28;23.75;;;;;;;;;;4994479;28;20050;-68
2021/12/09 05:59:13;;;;;;;51.75;23.95;;;;;;;;;;4994424;28;20046;-68
2021/12/09 06:01:40;;;;;;;50.30;24.70;;;;;;;;;;4994414;28;20046;-68
2021/12/09 06:04:07;;;;;;;58.72;25.48;;;;;;;;;;4993995;28;20491;-68
2021/12/09 06:06:34;;;;;;;55.03;25.00;;;;;;;;;;4992998;28;20061;-68
2021/12/09 06:09:00;;;;;;;52.10;24.20;;;;;;;;;;4994255;28;20053;-68
2021/12/09 06:11:26;;;;;;;52.90;23.75;;;;;;;;;;4994170;28;20050;-68
2021/12/09 06:13:53;;;;;;;57.15;23.30;;;;;;;;;;4994159;28;20085;-67
2021/12/09 06:16:19;;;;;;;48.33;23.50;;;;;;;;;;4993093;28;20070;-67
2021/12/09 06:18:45;;;;;;;64.38;26.27;;;;;;;;;;4993961;28;20046;-68
2021/12/09 06:21:11;;;;;;;51.60;26.05;;;;;;;;;;4976528;28;20078;-67
2021/12/09 06:23:38;;;;;;;53.75;25.65;;;;;;;;;;4993988;28;20054;-68
2021/12/09 06:26:05;;;;;;;;;;;;;;;;;;4993290;28;20395;-69
2021/12/09 06:28:31;;;;;;;61.85;25.83;;;;;;;;;;4992776;28;19928;-67
2021/12/09 06:30:57;;;;;;;58.70;26.90;;;;;;;;;;4993904;28;20046;-68
2021/12/09 06:33:24;;;;;;;63.63;27.67;;;;;;;;;;4993752;28;20058;-69
2021/12/09 06:35:50;;;;;;;57.35;27.63;;;;;;;;;;4993502;28;20131;-67
2021/12/09 06:38:17;;;;;;;62.85;26.08;;;;;;;;;;4992120;28;20069;-67
2021/12/09 06:40:44;;;;;;;55.97;26.50;;;;;;;;;;4992359;28;20054;-67
2021/12/09 06:43:10;;;;;;;53.95;26.30;;;;;;;;;;4992405;28;20058;-69
2021/12/09 06:45:37;;;;;;;50.00;25.25;;;;;;;;;;4976362;28;20054;-67
2021/12/09 06:48:03;;;;;;;47.92;25.30;;;;;;;;;;4993605;28;20085;-67
2021/12/09 06:50:29;;;;;;;59.13;24.23;;;;;;;;;;4975984;28;20054;-69
2021/12/09 06:52:55;;;;;;;52.35;23.58;;;;;;;;;;4992405;28;20074;-67
2021/12/09 06:55:21;;;;;;;55.80;26.42;;;;;;;;;;4993543;28;20054;-68
2021/12/09 06:57:48;;;;;;;49.38;25.13;;;;;;;;;;4992342;28;20042;-68
2021/12/09 07:00:16;;;;;;;62.22;25.90;;;;;;;;;;4993437;28;20050;-68
2021/12/09 07:02:44;;;;;;;51.80;25.70;;;;;;;;;;4992436;28;20046;-67
2021/12/09 07:05:10;;;;;;;46.80;23.92;;;;;;;;;;4993461;28;20061;-68
2021/12/09 07:07:38;;;;;;;52.95;25.15;;;;;;;;;;4993362;28;20046;-67
2021/12/09 07:10:04;;;;;;;49.20;23.52;;;;;;;;;;4993350;28;20176;-69
2021/12/09 07:12:31;;;;;;;50.65;23.23;;;;;;;;;;4993264;28;20054;-67
2021/12/09 07:14:57;;;;;;;52.08;23.77;;;;;;;;;;4992110;28;20376;-68
2021/12/09 07:17:25;;;;;;;46.08;24.17;;;;;;;;;;4993182;28;20050;-67
2021/12/09 07:19:52;;;;;;;50.33;25.88;;;;;;;;;;4992978;28;20462;-67
2021/12/09 07:22:18;;;;;;;52.25;24.33;;;;;;;;;;4976038;28;20050;-67
2021/12/09 07:24:45;;;;;;;49.80;24.63;;;;;;;;;;4992237;28;20154;-67
2021/12/09 07:27:11;;;;;;;54.35;25.70;;;;;;;;;;4993183;28;20133;-67
2021/12/09 07:29:37;;;;;;;52.33;23.02;;;;;;;;;;4993117;28;20046;-67
2021/12/09 07:32:04;;;;;;;52.20;25.70;;;;;;;;;;4991733;28;20514;-69
2021/12/09 07:34:30;;;;;;;54.80;25.92;;;;;;;;;;4991175;28;20479;-67
2021/12/09 07:37:02;;;;;;;51.15;25.25;;;;;;;;;;4993088;28;20057;-66
2021/12/09 07:39:28;;;;;;;56.42;25.17;;;;;;;;;;4992068;28;20181;-67
2021/12/09 07:41:56;;;;;;;49.35;25.80;;;;;;;;;;4993030;28;20050;-67
2021/12/09 07:44:22;;;;;;;61.30;26.45;;;;;;;;;;4991885;28;20054;-67
2021/12/09 07:46:48;;;;;;;55.15;24.90;;;;;;;;;;4992995;28;20053;-67
2021/12/09 07:49:14;;;;;;;;;;;;;;;;;;4992843;28;20511;-68
2021/12/09 07:51:40;;;;;;;51.35;26.27;;;;;;;;;;4984570;28;19976;-67
2021/12/09 07:54:07;;;;;;;48.42;23.70;;;;;;;;;;4993653;28;20142;-67
2021/12/09 07:56:33;;;;;;;49.85;25.90;;;;;;;;;;4994228;28;20050;-67
2021/12/09 07:58:59;;;;;;;67.68;25.00;;;;;;;;;;4994595;28;20399;-68
2021/12/09 08:01:25;;;;;;;56.42;24.48;;;;;;;;;;4993831;28;20061;-68
2021/12/09 08:03:51;;;;;;;61.08;26.00;;;;;;;;;;4995128;28;20056;-68
2021/12/09 08:06:17;;;;;;;55.10;25.55;;;;;;;;;;4993410;28;20049;-68
2021/12/09 08:08:43;;;;;;;54.75;25.08;;;;;;;;;;4995419;28;20105;-69
2021/12/09 08:11:10;;;;;;;55.47;25.02;;;;;;;;;;4992522;28;20049;-69
2021/12/09 08:13:36;;;;;;;58.88;27.00;;;;;;;;;;4994969;28;20055;-68
2021/12/09 08:16:02;;;;;;;55.17;24.77;;;;;;;;;;4994158;28;20053;-69
2021/12/09 08:18:31;;;;;;;49.88;24.10;;;;;;;;;;4994931;28;20038;-68
2021/12/09 08:21:02;;;;;;;51.78;24.83;;;;;;;;;;4992994;28;20046;-69
2021/12/09 08:23:29;;;;;;;57.63;24.17;;;;;;;;;;4994133;28;20050;-69
2021/12/09 08:25:57;;;;;;;56.53;27.10;;;0.40;99.90;;;;;;4993920;28;20074;-71
2021/12/09 08:28:23;;;;;;;54.42;23.77;;;;;;;;;;4993209;28;20062;-68
2021/12/09 08:30:51;;;;;;;53.70;25.95;;;;;;;;;;4993072;28;20042;-69
2021/12/09 08:33:22;;;;;;;50.42;25.45;;;;;;;;;;4994838;28;20086;-74
2021/12/09 08:35:48;;;;;;;46.78;24.00;;;;;;;;;;4994511;28;20058;-72
2021/12/09 08:38:15;;;;;;;56.22;25.52;;;;;;;;;;4991061;28;20082;-69
2021/12/09 08:40:43;;;;;;;61.10;24.73;;;;;;;;;;4993347;28;20105;-69
2021/12/09 08:43:09;;;;;;;53.17;25.48;;;;;;;;;;4994096;28;20050;-68
2021/12/09 08:45:35;;;;;;;53.78;24.10;;;;;;;;;;4994479;28;20062;-71
2021/12/09 08:48:01;;;;;;;50.60;25.30;;;;;;;;;;4993631;28;20078;-69
2021/12/09 08:50:33;;;;;;;56.90;25.38;;;;;;;;;;4991449;28;20402;-69
2021/12/09 08:52:59;;;;;;;54.30;25.45;;;;;;;;;;4993559;28;20054;-69
2021/12/09 08:55:25;;;;;;;49.78;24.80;;;;;;;;;;4994437;28;20502;-70
2021/12/09 08:57:52;;;;;;;59.13;25.95;;;;;;;;;;4992558;28;20562;-68
2021/12/09 09:00:18;;;;;;;;;;;0.80;99.90;;;;;;4993050;28;20042;-68
2021/12/09 09:02:46;;;;;;;56.45;24.60;;;;;;;;;;4977097;28;19943;-69
2021/12/09 09:05:13;;;;;;;50.40;26.17;;;;;;;;;;4991691;28;20053;-73
2021/12/09 09:07:40;;;;;;;50.20;24.55;;;;;;;;;;4992625;28;20101;-67
2021/12/09 09:10:07;;;;;;;49.80;24.52;;;;;;;;;;4995112;28;20125;-66
2021/12/09 09:12:33;;;;;;;52.55;25.73;;;;;;;;;;4995019;28;20046;-66
2021/12/09 09:15:00;;;;;;;52.17;25.25;;;;;;;;;;4979405;28;20434;-67
2021/12/09 09:17:27;;;;;;;50.42;22.45;;;;;;;;;;4983551;28;20082;-66
2021/12/09 09:19:53;;;;;;;49.05;24.08;;;;;;;;;;4994765;28;20554;-66
2021/12/09 09:22:19;;;;;;;49.22;23.42;;;;;;;;;;4994721;28;20043;-66
2021/12/09 09:24:45;;;;;;;47.67;22.35;;;;;;;;;;4994631;28;20134;-67
2021/12/09 09:27:12;;;;;;;48.55;21.50;;;;;;;;;;4993429;28;20057;-66
2021/12/09 09:29:40;;;;;;;44.88;21.65;;;;;;;;;;4994436;28;20097;-67
2021/12/09 09:32:07;;;;;;;42.22;21.27;;;;;;;;;;4993445;28;20054;-67
2021/12/09 09:34:33;;;;;;;44.95;21.08;;;;;;;;;;4991281;28;20097;-64
2021/12/09 09:36:59;;;;;;;;;;;;;;;;;;4977030;28;20108;-65
2021/12/09 09:39:29;;;;;;;43.58;20.92;;;;;;;;;;4994235;28;20647;-64
2021/12/09 09:42:01;;;;;;;41.65;20.17;;;;;;;;;;4994425;28;20096;-65
2021/12/09 09:44:34;;;;;;;42.92;20.60;;;;;;;;;;4993757;28;20133;-66
2021/12/09 09:47:00;;;;;;;41.05;19.35;;;;;;;;;;4993779;28;20050;-68
2021/12/09 09:49:27;;;;;;;43.42;20.25;;;;;;;;;;4994620;28;20051;-67
2021/12/09 09:51:53;;;;;;;36.17;18.75;;;;;;;;;;4994555;28;20046;-67
2021/12/09 09:54:19;;;;;;;37.58;18.98;;;;;;;;;;4994604;28;20050;-67
2021/12/09 09:56:45;;;;;;;37.45;18.63;;;;;;;;;;4994489;28;20058;-67
2021/12/09 09:59:12;;;;;;;36.15;17.98;;;;;;;;;;4993324;28;20053;-67
2021/12/09 10:01:39;;;;;;;38.53;19.27;;;;;;;;;;4993933;28;20074;-67
2021/12/09 10:04:25;;;;;;;35.72;18.10;;;;;;;;;;4993126;28;20069;-67
2021/12/09 10:06:52;;;;;;;37.47;17.50;;;;;;;;;;4994361;28;20050;-68
2021/12/09 10:09:18;;;;;;;30.02;17.45;;;;;;;;;;4994301;28;20154;-67
2021/12/09 10:11:44;;;;;;;33.97;16.75;;;;;;;;;;4994187;28;20054;-68
2021/12/09 10:14:12;;;;;;;34.45;17.63;;;;;;;;;;4992874;28;20050;-68
2021/12/09 10:16:38;;;;;;;37.28;17.80;;;;;;;;;;4993435;28;20047;-68
2021/12/09 10:19:12;;;;;;;35.08;17.80;;;;;;;;;;4992625;28;20501;-68
2021/12/09 10:21:38;;;;;;;38.78;17.05;;;;;;;;;;4994108;28;20139;-68
2021/12/09 10:24:06;;;;;;;36.65;16.75;;;;;;;;;;4992823;28;20505;-68
2021/12/09 10:26:36;;;;;;;31.50;17.88;;;;;;;;;;4994005;28;20054;-69
2021/12/09 10:29:11;;;;;;;37.35;17.02;;;;;;;;;;4993510;28;20050;-69
2021/12/09 10:31:43;;;;;;;34.80;16.73;;;;;;;;;;4992877;28;20073;-68
2021/12/09 10:34:26;;;;;;;30.60;16.02;;;2.50;99.90;;;;;;4976296;28;20066;-68
2021/12/09 10:36:58;;;;;;;28.35;16.42;;;;;;;;;;4989164;28;21192;-75
2021/12/09 10:39:26;;;;;;;36.03;16.70;;;;;;;;;;4994041;28;20129;-66
2021/12/09 10:41:53;;;;;;;37.38;17.00;;;;;;;;;;4992615;28;20053;-69
2021/12/09 10:44:29;;;;;;;36.20;16.58;;;;;;;;;;4975973;28;20133;-68
2021/12/09 10:47:05;;;;;;;30.57;16.70;;;;;;;;;;4993340;28;20061;-68
2021/12/09 10:49:39;;;;;;;30.92;16.70;;;;;;;;;;4993590;28;20380;-68
2021/12/09 10:52:24;;;;;;;34.05;16.40;;;;;;;;;;4993497;28;20471;-67
2021/12/09 10:54:50;;;;;;;28.42;16.77;;;;;;;;;;4976277;28;20081;-66
2021/12/09 10:57:28;;;;;;;;;;;2.60;99.90;;;;;;4993379;28;20050;-67
2021/12/09 10:59:54;;;;;;;;;;;3.00;99.90;;;;;;4993889;28;20024;-67
2021/12/09 11:02:20;;;;;;;;;;;2.70;99.90;;;;;;4993845;28;19928;-67
2021/12/09 11:04:59;;;;;;;;;;;2.80;99.90;;;;;;4993707;28;19922;-66
2021/12/09 11:07:29;;;;;;;;;;;3.10;99.90;;;;;;4992477;28;20610;-67
2021/12/09 11:09:55;;;;;;;;;;;;;;;;;;4993736;28;19972;-68
2021/12/09 11:12:21;;;;;;;;;;;;;;;;;;4993225;28;19922;-67
2021/12/09 11:14:46;;;;;;;;;;;;;;;;;;4993623;28;19953;-67
2021/12/09 11:17:13;;;;;;;;;;;2.90;99.90;;;;;;4993462;28;19925;-67
2021/12/09 11:19:46;;;;;;;;;;;;;;;;;;4993653;28;20360;-67
2021/12/09 11:22:13;;;;;;;;;;;;;;;;;;4993597;28;19922;-67
2021/12/09 11:24:42;;;;;;;;;;;;;;;;;;4993308;28;20278;-67
2021/12/09 11:27:08;;;;;;;;;;;3.00;99.90;;;;;;4993459;28;19925;-67
2021/12/09 11:29:36;;;;;;;;;;;3.00;99.90;;;;;;4996549;28;20033;-65
2021/12/09 11:32:13;;;;;;;;;;;;;;;;;;4997519;28;19926;-66
2021/12/09 11:34:54;;;;;;;;;;;3.00;99.90;;;;;;5012661;28;20392;-67
2021/12/09 11:37:38;;;;;;;;;;;;;;;;;;4996870;28;19921;-67
2021/12/09 11:40:07;;;;;;;;;;;2.70;99.90;;;;;;4997293;28;19921;-68
2021/12/09 11:42:40;;;;;;;;;;;;;;;;;;4997469;28;19921;-68
2021/12/09 11:45:07;;;;;;;;;;;2.90;99.90;;;;;;4997469;28;19921;-67
2021/12/09 11:47:33;;;;;;;;;;;;;;;;;;4997348;28;19967;-68
2021/12/09 11:49:59;;;;;;;;;;;2.90;99.90;;;;;;4997251;28;19925;-68
2021/12/09 11:52:25;;;;;;;;;;;;;;;;;;4995812;28;19941;-74
2021/12/09 12:11:55;;;;;;;;;;;;;;;;;;4984088;28;19921;-73
2021/12/09 12:14:28;;;;;;;;;;;3.10;99.90;;;;;;5014488;28;20017;-69
2021/12/09 12:19:44;;;;;;;;;;;3.10;99.90;;;;;;5014143;28;19925;-69
2021/12/09 12:22:42;;;;;;;;;;;3.20;99.90;;;;;;5010273;28;20020;-69
2021/12/09 12:25:30;;;;;;;;;;;3.00;99.90;;;;;;5015131;28;19979;-68
2021/12/09 12:28:17;;;;;;;;;;;3.10;99.90;;;;;;5016257;28;20377;-69
2021/12/09 12:31:38;;;;;;;;;;;;;;;;;;5014875;28;20004;-70
2021/12/09 12:34:02;;;;;;;;;;;3.30;99.90;;;;;;5003882;28;20297;-69
2021/12/09 12:36:52;;;;;;;;;;;;;;;;;;5015480;28;19980;-75
2021/12/09 12:39:18;;;;;;;;;;;3.40;99.90;;;;;;5011952;28;20008;-68
2021/12/09 12:41:44;;;;;;;;;;;;;;;;;;5015263;28;19948;-68
2021/12/09 12:44:13;;;;;;;;;;;3.00;99.90;;;;;;5015914;28;19921;-68
2021/12/09 12:46:50;;;;;;;;;;;;;;;;;;5015662;28;19944;-68
2021/12/09 12:51:49;;;;;;;;;;;;;;;;;;5015464;28;20365;-68
2021/12/09 12:56:54;;;;;;;;;;;3.10;99.90;;;;;;5015667;28;19921;-68
2021/12/09 12:59:20;;;;;;;;;;;;;;;;;;5015074;28;19928;-68
2021/12/09 13:10:01;;;;;;;;;;;3.30;99.90;;;;;;5015517;28;20004;-68
2021/12/09 13:12:38;;;;;;;;;;;3.50;99.90;;;;;;5015486;28;19921;-68
2021/12/09 13:15:06;;;;;;;;;;;3.50;99.90;;;;;;5013741;28;20357;-69
2021/12/09 13:17:42;;;;;;;;;;;3.60;99.90;;;;;;5015300;28;20341;-68
2021/12/09 13:20:24;;;;;;;;;;;3.00;99.90;;;;;;5015252;28;19925;-68
2021/12/09 13:23:10;;;;;;;;;;;3.50;99.90;;;;;;5014193;28;19964;-68
2021/12/09 13:25:36;;;;;;;;;;;3.60;99.90;;;;;;5014897;28;20323;-68
2021/12/09 13:28:05;;;;;;;;;;;;;;;;;;5014766;28;19925;-68
2021/12/09 13:33:44;;;;;;;;;;;3.30;99.90;;;;;;5014917;28;19929;-68
2021/12/09 13:49:24;;;;;;;;;;;;;;;;;;5012333;28;20350;-67
2021/12/09 13:56:47;;;;;;;;;;;3.60;99.90;;;;;;5014276;28;19925;-66
2021/12/09 13:59:13;;;;;;;;;;;;;;;;;;5013813;28;19972;-66
2021/12/09 14:01:38;;;;;;;;;;;3.50;99.90;;;;;;5014204;28;19984;-69
2021/12/09 14:04:07;;;;;;;;;;;3.70;99.90;;;;;;5012861;28;19921;-68
2021/12/09 14:06:33;;;;;;;;;;;;;;;;;;5014220;28;20008;-66
2021/12/09 14:08:59;;;;;;;;;;;3.70;99.90;;;;;;5013875;28;20389;-67
2021/12/09 14:11:32;;;;;;;;;;;3.40;99.90;;;;;;5013983;28;19921;-67
2021/12/09 14:14:02;;;;;;;;;;;;;;;;;;5014235;28;19929;-66
2021/12/09 14:19:58;;;;;;;;;;;3.60;99.90;;;;;;5014062;28;19921;-68
2021/12/09 14:21:46;;;;;;;;;;;3.50;99.90;;;;;;5013906;28;19921;-68
2021/12/09 14:24:22;;;;;;;;;;;3.70;99.90;;;;;;5013994;28;19925;-67
2021/12/09 14:26:48;;;;;;;;;;;;;;;;;;5013668;28;19932;-67
2021/12/09 14:29:14;;;;;;;;;;;3.60;99.90;;;;;;5013808;28;19921;-67
2021/12/09 14:31:41;;;;;;;;;;;;;;;;;;5013872;28;19922;-67
2021/12/09 14:34:06;;;;;;;;;;;3.60;99.90;;;;;;5013886;28;20024;-66
2021/12/09 14:36:32;;;;;;;;;;;3.30;99.90;;;;;;5013673;28;19988;-67
2021/12/09 14:39:09;;;;;;;;;;;3.70;99.90;;;;;;5013717;28;19928;-67
2021/12/09 14:41:35;;;;;;;;;;;;;;;;;;5013565;28;19929;-67
2021/12/09 14:44:04;;;;;;;;;;;3.90;99.90;;;;;;5013336;28;20374;-69
2021/12/09 14:46:36;;;;;;;;;;;;;;;;;;5013154;28;19925;-68
2021/12/09 14:49:03;;;;;;;;;;;;;;;;;;5012481;28;19983;-66
2021/12/09 14:51:29;;;;;;;;;;;;;;;;;;5012621;28;19970;-67
2021/12/09 14:53:55;;;;;;;;;;;;;;;;;;5012572;28;19925;-67
2021/12/09 14:56:27;;;;;;;;;;;3.70;99.90;;;;;;5013160;28;19921;-67
2021/12/09 14:58:54;;;;;;;;;;;3.50;99.90;;;;;;5011941;28;19929;-68
2021/12/09 15:01:22;;;;;;;;;;;;;;;;;;5012331;28;20293;-72
2021/12/09 15:04:01;;;;;;;;;;;;;;;;;;5010525;28;19960;-69
2021/12/09 15:06:32;;;;;;;;;;;3.80;99.90;;;;;;5006099;28;19976;-67
2021/12/09 15:09:14;;;;;;;;;;;3.50;99.90;;;;;;5008971;28;20008;-67
2021/12/09 15:11:40;;;;;;;;;;;;;;;;;;5012729;28;20022;-67
2021/12/09 15:14:14;;;;;;;;;;;3.70;99.90;;;;;;5000688;28;19952;-68
2021/12/09 15:16:39;;;;;;;;;;;;;;;;;;5012661;28;19921;-66
2021/12/09 15:19:05;;;;;;;;;;;;;;;;;;4995064;28;19979;-68
2021/12/09 15:21:31;;;;;;;;;;;3.80;99.90;;;;;;5009059;28;19929;-68
2021/12/09 15:23:57;;;;;;;;;;;;;;;;;;5011063;28;19921;-70
2021/12/09 15:26:24;;;;;;;;;;;;;;;;;;5012276;28;19928;-69
2021/12/09 15:28:50;;;;;;;;;;;;;;;;;;5013105;28;19991;-71
2021/12/09 15:31:20;;;;;;;;;;;3.70;99.90;;;;;;5013091;28;19921;-70
2021/12/09 15:33:49;;;;;;;;;;;3.70;99.90;;;;;;5012855;28;19944;-68
2021/12/09 15:36:15;;;;;;;;;;;;;;;;;;5013018;28;19979;-68
2021/12/09 15:38:42;;;;;;;;;;;3.80;99.90;;;;;;4996915;28;19929;-69
2021/12/09 15:41:08;;;;;;;;;;;3.70;99.90;;;;;;5012710;28;20332;-70